createdAt,value
2023-04-18T00:07:10.277Z,101683.25
2023-04-18T00:09:38.502Z,101685.19
2023-04-18T00:15:50.721Z,101678.03
2023-04-18T00:18:18.372Z,101677.09
2023-04-18T00:20:47.155Z,101684.59
2023-04-18T00:23:15.595Z,101680.28
2023-04-18T00:25:44.562Z,101692.25
2023-04-18T00:28:12.752Z,101684.34
2023-04-18T00:30:41.053Z,101678.81
2023-04-18T00:33:12.366Z,101678.66
2023-04-18T00:35:40.590Z,101672.56
2023-04-18T00:38:09.304Z,101669.94
2023-04-18T00:40:41.890Z,101664.75
2023-04-18T00:43:10.188Z,101662.22
2023-04-18T00:45:41.298Z,101664.03
2023-04-18T00:48:10.094Z,101663.03
2023-04-18T00:50:38.823Z,101659.53
2023-04-18T00:53:10.869Z,101658.56
2023-04-18T00:55:38.934Z,101656.72
2023-04-18T00:58:07.060Z,101656.44
2023-04-18T01:00:34.757Z,101653.66
2023-04-18T01:03:03.120Z,101652.75
2023-04-18T01:05:31.888Z,101645.78
2023-04-18T01:08:01.686Z,101653.72
2023-04-18T01:10:30.151Z,101647.44
2023-04-18T01:13:18.129Z,101645.69
2023-04-18T01:15:46.936Z,101639.56
2023-04-18T01:18:18.597Z,101635.19
2023-04-18T01:20:48.514Z,101637.78
2023-04-18T01:23:17.160Z,101636.00
2023-04-18T01:25:45.294Z,101631.56
2023-04-18T01:28:14.397Z,101626.34
2023-04-18T01:30:42.424Z,101617.59
2023-04-18T01:33:10.348Z,101618.31
2023-04-18T01:35:38.768Z,101614.81
2023-04-18T01:38:06.536Z,101611.31
2023-04-18T01:40:34.684Z,101612.22
2023-04-18T01:43:02.965Z,101609.63
2023-04-18T01:45:30.737Z,101611.34
2023-04-18T01:48:25.615Z,101611.09
2023-04-18T01:51:03.121Z,101606.75
2023-04-18T01:53:32.610Z,101605.75
2023-04-18T01:56:05.625Z,101600.38
2023-04-18T01:58:33.525Z,101594.97
2023-04-18T02:01:01.121Z,101607.06
2023-04-18T02:03:29.117Z,101598.41
2023-04-18T02:05:57.250Z,101598.38
2023-04-18T02:08:28.475Z,101592.91
2023-04-18T02:10:55.871Z,101590.25
2023-04-18T02:13:23.049Z,101593.53
2023-04-18T02:15:50.353Z,101584.50
2023-04-18T02:18:18.784Z,101585.41
2023-04-18T02:20:46.904Z,101581.97
2023-04-18T02:23:14.927Z,101586.19
2023-04-18T02:25:43.029Z,101581.81
2023-04-18T02:28:11.244Z,101589.44
2023-04-18T02:30:39.184Z,101583.22
2023-04-18T02:33:07.266Z,101582.25
2023-04-18T02:35:36.122Z,101581.22
2023-04-18T02:38:04.258Z,101582.88
2023-04-18T02:40:32.437Z,101583.75
2023-04-18T02:43:00.560Z,101581.03
2023-04-18T02:45:31.933Z,101584.28
2023-04-18T02:48:02.221Z,101582.53
2023-04-18T02:50:53.780Z,101585.88
2023-04-18T02:53:24.545Z,101590.78
2023-04-18T02:56:33.591Z,101578.81
2023-04-18T02:59:16.472Z,101574.56
2023-04-18T03:06:10.971Z,101579.25
2023-04-18T03:06:31.937Z,101571.28
2023-04-18T03:08:39.503Z,101568.84
2023-04-18T03:11:08.311Z,101567.91
2023-04-18T03:13:36.929Z,101571.56
2023-04-18T03:16:05.826Z,101556.78
2023-04-18T03:18:34.483Z,101559.63
2023-04-18T03:21:03.031Z,101557.66
2023-04-18T03:23:33.558Z,101562.94
2023-04-18T03:26:05.865Z,101559.31
2023-04-18T03:28:37.487Z,101564.34
2023-04-18T03:31:06.030Z,101565.25
2023-04-18T03:33:36.112Z,101561.63
2023-04-18T03:36:09.133Z,101575.41
2023-04-18T03:38:38.206Z,101574.34
2023-04-18T03:41:06.478Z,101572.56
2023-04-18T03:43:36.561Z,101564.09
2023-04-18T03:46:05.084Z,101575.75
2023-04-18T03:48:36.174Z,101566.09
2023-04-18T03:51:08.968Z,101566.03
2023-04-18T03:53:38.609Z,101563.38
2023-04-18T03:59:57.756Z,101557.63
2023-04-18T04:02:26.747Z,101560.19
2023-04-18T04:04:54.923Z,101552.06
2023-04-18T04:07:29.213Z,101559.00
2023-04-18T04:13:42.424Z,101555.34
2023-04-18T04:16:15.340Z,101559.31
2023-04-18T04:18:50.959Z,101557.81
2023-04-18T04:25:21.369Z,101544.50
2023-04-18T04:27:58.921Z,101543.06
2023-04-18T04:30:33.683Z,101540.59
2023-04-18T04:33:02.203Z,101536.84
2023-04-18T04:35:29.653Z,101533.22
2023-04-18T04:37:57.148Z,101535.38
2023-04-18T04:40:30.727Z,101543.19
2023-04-18T04:43:15.851Z,101538.88
2023-04-18T04:45:45.557Z,101537.69
2023-04-18T04:48:12.836Z,101529.81
2023-04-18T04:50:41.000Z,101535.78
2023-04-18T04:53:08.422Z,101540.94
2023-04-18T04:59:06.605Z,101541.38
2023-04-18T05:01:37.372Z,101536.88
2023-04-18T05:04:04.726Z,101536.81
2023-04-18T05:06:32.092Z,101536.72
2023-04-18T05:09:01.280Z,101534.13
2023-04-18T05:11:28.469Z,101536.13
2023-04-18T05:13:55.820Z,101534.94
2023-04-18T05:16:29.766Z,101531.53
2023-04-18T05:18:57.236Z,101537.56
2023-04-18T05:21:26.409Z,101535.09
2023-04-18T05:27:47.440Z,101531.59
2023-04-18T05:30:15.003Z,101526.34
2023-04-18T05:32:42.277Z,101534.13
2023-04-18T05:35:09.730Z,101530.19
2023-04-18T05:37:37.083Z,101529.19
2023-04-18T05:40:05.445Z,101532.41
2023-04-18T05:42:32.728Z,101525.28
2023-04-18T05:45:00.299Z,101532.25
2023-04-18T05:47:28.893Z,101531.38
2023-04-18T05:49:56.581Z,101534.47
2023-04-18T05:52:24.072Z,101531.94
2023-04-18T05:54:51.228Z,101540.63
2023-04-18T05:57:19.504Z,101543.38
2023-04-18T05:59:46.836Z,101548.50
2023-04-18T06:02:14.618Z,101550.06
2023-04-18T06:04:42.687Z,101551.69
2023-04-18T06:07:10.526Z,101554.22
2023-04-18T06:09:37.915Z,101553.41
2023-04-18T06:12:05.270Z,101554.22
2023-04-18T06:14:32.607Z,101560.59
2023-04-18T06:17:00.168Z,101537.53
2023-04-18T06:19:27.337Z,101572.38
2023-04-18T06:21:54.850Z,101569.28
2023-04-18T06:24:22.223Z,101570.06
2023-04-18T06:26:49.389Z,101566.88
2023-04-18T06:29:18.326Z,101574.63
2023-04-18T06:31:47.094Z,101574.25
2023-04-18T06:34:14.531Z,101577.16
2023-04-18T06:36:44.065Z,101572.28
2023-04-18T06:39:11.329Z,101569.06
2023-04-18T06:41:39.454Z,101577.78
2023-04-18T06:44:06.752Z,101567.84
2023-04-18T06:46:34.967Z,101571.50
2023-04-18T06:49:06.085Z,101572.59
2023-04-18T06:51:34.673Z,101574.44
2023-04-18T06:54:02.171Z,101575.78
2023-04-18T06:56:30.630Z,101575.88
2023-04-18T06:58:58.429Z,101576.28
2023-04-18T07:01:25.861Z,101568.56
2023-04-18T07:03:53.151Z,101568.34
2023-04-18T07:06:20.343Z,101571.84
2023-04-18T07:08:47.619Z,101566.72
2023-04-18T07:11:16.726Z,101566.78
2023-04-18T07:13:56.891Z,101560.03
2023-04-18T07:16:26.810Z,101559.66
2023-04-18T07:18:53.927Z,101552.91
2023-04-18T07:21:21.114Z,101555.00
2023-04-18T07:23:48.301Z,101554.13
2023-04-18T07:26:15.549Z,101557.88
2023-04-18T07:28:43.018Z,101549.72
2023-04-18T07:31:11.813Z,101559.78
2023-04-18T07:33:39.108Z,101553.97
2023-04-18T07:36:06.336Z,101556.72
2023-04-18T07:38:35.677Z,101560.75
2023-04-18T07:41:03.533Z,101547.03
2023-04-18T07:43:30.815Z,101538.63
2023-04-18T07:46:03.420Z,101542.47
2023-04-18T07:48:30.674Z,101541.34
2023-04-18T07:50:57.832Z,101533.03
2023-04-18T07:53:24.971Z,101531.44
2023-04-18T07:55:52.235Z,101520.34
2023-04-18T07:58:20.538Z,101515.47
2023-04-18T08:00:47.519Z,101512.13
2023-04-18T08:03:14.881Z,101520.47
2023-04-18T08:05:42.522Z,101515.59
2023-04-18T08:08:10.591Z,101516.00
2023-04-18T08:10:37.672Z,101511.91
2023-04-18T08:13:05.001Z,101502.50
2023-04-18T08:15:33.029Z,101507.38
2023-04-18T08:18:04.054Z,101499.72
2023-04-18T08:20:31.657Z,101505.69
2023-04-18T08:23:07.527Z,101497.22
2023-04-18T08:25:37.029Z,101493.16
2023-04-18T08:28:04.577Z,101491.09
2023-04-18T08:30:32.203Z,101489.78
2023-04-18T08:33:00.766Z,101489.13
2023-04-18T08:35:38.224Z,101482.38
2023-04-18T08:38:05.691Z,101481.66
2023-04-18T08:40:33.130Z,101480.31
2023-04-18T08:43:02.459Z,101479.59
2023-04-18T08:45:29.821Z,101486.13
2023-04-18T08:47:59.186Z,101479.41
2023-04-18T08:50:27.195Z,101480.50
2023-04-18T08:52:55.312Z,101478.94
2023-04-18T08:55:25.986Z,101477.09
2023-04-18T08:57:56.300Z,101487.97
2023-04-18T09:00:23.971Z,101477.69
2023-04-18T09:02:56.934Z,101472.41
2023-04-18T09:05:25.472Z,101475.03
2023-04-18T09:07:57.155Z,101476.13
2023-04-18T09:10:29.986Z,101475.31
2023-04-18T09:12:58.954Z,101477.31
2023-04-18T09:15:27.541Z,101466.06
2023-04-18T09:17:56.590Z,101469.66
2023-04-18T09:20:35.172Z,101464.38
2023-04-18T09:23:04.167Z,101469.69
2023-04-18T09:25:35.174Z,101467.28
2023-04-18T09:28:02.984Z,101467.56
2023-04-18T09:30:40.738Z,101472.78
2023-04-18T09:33:12.846Z,101467.38
2023-04-18T09:35:40.085Z,101470.41
2023-04-18T09:42:12.345Z,101461.22
2023-04-18T09:44:59.115Z,101458.59
2023-04-18T09:47:30.128Z,101452.41
2023-04-18T09:49:59.264Z,101444.59
2023-04-18T09:52:26.428Z,101445.59
2023-04-18T09:54:56.960Z,101447.91
2023-04-18T09:57:27.338Z,101449.06
2023-04-18T10:00:24.442Z,101440.19
2023-04-18T10:02:58.880Z,101441.16
2023-04-18T10:05:34.048Z,101434.00
2023-04-18T10:08:01.283Z,101427.94
2023-04-18T10:10:28.459Z,101419.09
2023-04-18T10:13:01.669Z,101417.47
2023-04-18T10:15:29.806Z,101415.88
2023-04-18T10:18:05.435Z,101412.50
2023-04-18T10:20:35.257Z,101403.75
2023-04-18T10:23:21.613Z,101406.34
2023-04-18T10:25:49.623Z,101401.19
2023-04-18T10:28:17.950Z,101402.03
2023-04-18T10:30:45.789Z,101391.53
2023-04-18T10:33:31.980Z,101398.56
2023-04-18T10:36:21.084Z,101388.16
2023-04-18T10:38:49.806Z,101387.34
2023-04-18T10:41:18.230Z,101390.88
2023-04-18T10:44:04.287Z,101383.00
2023-04-18T10:46:32.982Z,101381.34
2023-04-18T10:49:18.507Z,101380.41
2023-04-18T10:51:49.857Z,101376.84
2023-04-18T10:54:24.466Z,101373.25
2023-04-18T10:56:52.937Z,101367.16
2023-04-18T10:59:22.193Z,101357.50
2023-04-18T11:01:50.228Z,101361.03
2023-04-18T11:04:18.558Z,101358.38
2023-04-18T11:06:50.007Z,101361.03
2023-04-18T11:09:18.636Z,101347.88
2023-04-18T11:11:45.796Z,101351.34
2023-04-18T11:14:15.724Z,101339.09
2023-04-18T11:16:56.020Z,101343.50
2023-04-18T11:19:25.756Z,101342.53
2023-04-18T11:21:52.832Z,101345.19
2023-04-18T11:24:24.535Z,101345.19
2023-04-18T11:26:56.174Z,101341.63
2023-04-18T11:29:23.805Z,101338.97
2023-04-18T11:31:53.030Z,101331.06
2023-04-18T11:34:22.529Z,101336.34
2023-04-18T11:36:51.650Z,101331.09
2023-04-18T11:39:24.795Z,101332.06
2023-04-18T11:41:52.335Z,101325.00
2023-04-18T11:44:30.710Z,101319.75
2023-04-18T11:47:03.950Z,101328.56
2023-04-18T11:49:33.652Z,101324.06
2023-04-18T11:52:04.060Z,101324.09
2023-04-18T11:54:41.931Z,101313.59
2023-04-18T11:57:27.998Z,101317.13
2023-04-18T11:59:58.297Z,101316.22
2023-04-18T12:02:27.862Z,101314.41
2023-04-18T12:04:57.514Z,101297.75
2023-04-18T12:07:41.635Z,101298.59
2023-04-18T12:10:29.882Z,101308.31
2023-04-18T12:13:10.329Z,101304.78
2023-04-18T12:15:47.223Z,101298.59
2023-04-18T12:18:18.379Z,101295.06
2023-04-18T12:20:54.751Z,101281.78
2023-04-18T12:23:32.979Z,101279.97
2023-04-18T12:26:04.172Z,101272.84
2023-04-18T12:28:36.278Z,101276.38
2023-04-18T12:31:06.148Z,101274.63
2023-04-18T12:33:34.522Z,101278.25
2023-04-18T12:36:03.118Z,101268.56
2023-04-18T12:38:35.879Z,101271.16
2023-04-18T12:41:04.794Z,101256.03
2023-04-18T12:43:32.556Z,101261.16
2023-04-18T12:46:00.981Z,101261.94
2023-04-18T12:48:29.642Z,101255.91
2023-04-18T12:50:59.394Z,101253.41
2023-04-18T12:53:26.887Z,101261.47
2023-04-18T12:55:53.970Z,101266.75
2023-04-18T12:58:21.067Z,101260.66
2023-04-18T13:00:49.181Z,101257.09
2023-04-18T13:03:16.972Z,101256.25
2023-04-18T13:05:45.348Z,101263.28
2023-04-18T13:08:22.130Z,101262.47
2023-04-18T13:10:57.792Z,101258.03
2023-04-18T13:13:29.255Z,101254.47
2023-04-18T13:16:04.814Z,101260.59
2023-04-18T13:18:32.816Z,101251.72
2023-04-18T13:21:00.298Z,101255.16
2023-04-18T13:23:27.548Z,101249.88
2023-04-18T13:25:54.578Z,101247.28
2023-04-18T13:28:21.817Z,101251.72
2023-04-18T13:30:48.819Z,101243.00
2023-04-18T13:33:17.207Z,101242.13
2023-04-18T13:35:44.360Z,101244.78
2023-04-18T13:38:11.625Z,101239.47
2023-04-18T13:40:39.066Z,101243.03
2023-04-18T13:43:11.717Z,101235.13
2023-04-18T13:45:38.963Z,101235.13
2023-04-18T13:48:06.963Z,101236.94
2023-04-18T13:50:34.218Z,101231.66
2023-04-18T13:53:01.272Z,101232.50
2023-04-18T13:55:28.753Z,101190.31
2023-04-18T13:57:56.044Z,101226.38
2023-04-18T14:00:23.076Z,101219.31
2023-04-18T14:02:53.711Z,101228.13
2023-04-18T14:05:21.208Z,101221.13
2023-04-18T14:08:15.136Z,101218.47
2023-04-18T14:11:07.855Z,101218.47
2023-04-18T14:13:39.510Z,101211.44
2023-04-18T14:16:16.985Z,101216.72
2023-04-18T14:18:49.884Z,101211.41
2023-04-18T14:21:19.126Z,101214.91
2023-04-18T14:23:56.531Z,101204.28
2023-04-18T14:26:24.567Z,101204.19
2023-04-18T14:29:15.317Z,101200.56
2023-04-18T14:31:57.211Z,101192.50
2023-04-18T14:34:25.722Z,101198.69
2023-04-18T14:37:10.654Z,101188.88
2023-04-18T14:39:43.445Z,101182.88
2023-04-18T14:42:13.027Z,101186.31
2023-04-18T14:44:43.992Z,101187.13
2023-04-18T14:47:12.568Z,101183.50
2023-04-18T14:49:42.788Z,101185.41
2023-04-18T14:52:10.740Z,101180.84
2023-04-18T14:54:47.160Z,101180.66
2023-04-18T14:57:14.933Z,101179.03
2023-04-18T14:59:43.556Z,101174.63
2023-04-18T15:02:12.170Z,101180.66
2023-04-18T15:04:40.110Z,101171.66
2023-04-18T15:07:07.663Z,101169.91
2023-04-18T15:09:38.447Z,101172.56
2023-04-18T15:12:06.645Z,101171.94
2023-04-18T15:14:35.262Z,101165.88
2023-04-18T15:17:06.448Z,101162.84
2023-04-18T15:19:34.709Z,101154.09
2023-04-18T15:22:06.043Z,101157.19
2023-04-18T15:24:33.861Z,101158.72
2023-04-18T15:27:04.841Z,101155.94
2023-04-18T15:29:33.356Z,101151.44
2023-04-18T15:32:03.971Z,101139.22
2023-04-18T15:34:35.661Z,101141.69
2023-04-18T15:37:09.124Z,101144.91
2023-04-18T15:39:36.807Z,101137.09
2023-04-18T15:42:05.543Z,101147.59
2023-04-18T15:44:33.676Z,101144.34
2023-04-18T15:47:04.433Z,101143.78
2023-04-18T15:49:35.966Z,101148.25
2023-04-18T15:52:04.315Z,101153.78
2023-04-18T15:54:35.844Z,101145.78
2023-04-18T15:57:03.648Z,101151.94
2023-04-18T15:59:31.317Z,101149.34
2023-04-18T16:01:58.922Z,101151.13
2023-04-18T16:04:26.387Z,101152.03
2023-04-18T16:10:29.745Z,101150.34
2023-04-18T16:13:05.184Z,101146.88
2023-04-18T16:15:41.968Z,101150.41
2023-04-18T16:18:09.364Z,101149.56
2023-04-18T16:20:37.420Z,101150.44
2023-04-18T16:23:05.060Z,101149.59
2023-04-18T16:25:33.515Z,101148.72
2023-04-18T16:28:01.269Z,101149.63
2023-04-18T16:30:28.888Z,101139.97
2023-04-18T16:32:56.497Z,101148.78
2023-04-18T16:35:24.894Z,101132.03
2023-04-18T16:37:57.570Z,101149.63
2023-04-18T16:40:31.434Z,101143.50
2023-04-18T16:42:59.979Z,101142.69
2023-04-18T16:45:27.782Z,101151.53
2023-04-18T16:47:55.531Z,101148.91
2023-04-18T16:50:23.529Z,101155.00
2023-04-18T16:52:51.359Z,101155.09
2023-04-18T16:55:19.466Z,101152.44
2023-04-18T16:57:47.746Z,101156.91
2023-04-18T17:00:17.286Z,101161.25
2023-04-18T17:02:45.782Z,101171.84
2023-04-18T17:05:20.919Z,101162.19
2023-04-18T17:08:10.210Z,101155.97
2023-04-18T17:10:40.948Z,101156.00
2023-04-18T17:16:18.516Z,101154.25
2023-04-18T17:18:45.872Z,101161.28
2023-04-18T17:21:24.099Z,101154.28
2023-04-18T17:23:58.145Z,101158.72
2023-04-18T17:26:27.057Z,101142.91
2023-04-18T17:28:54.346Z,101149.06
2023-04-18T17:31:21.658Z,101159.59
2023-04-18T17:33:51.178Z,101159.59
2023-04-18T17:36:22.142Z,101162.22
2023-04-18T17:38:58.552Z,101167.53
2023-04-18T17:41:26.481Z,101156.09
2023-04-18T17:43:53.867Z,101166.66
2023-04-18T17:46:34.975Z,101164.00
2023-04-18T17:49:07.101Z,101163.13
2023-04-18T17:51:34.528Z,101159.63
2023-04-18T17:54:02.213Z,101155.22
2023-04-18T17:56:31.909Z,101151.72
2023-04-18T17:59:02.610Z,101162.22
2023-04-18T18:01:30.808Z,101160.47
2023-04-18T18:03:59.311Z,101162.22
2023-04-18T18:06:28.049Z,101162.22
2023-04-18T18:08:55.120Z,101163.06
2023-04-18T18:11:25.974Z,101149.88
2023-04-18T18:14:07.133Z,101166.59
2023-04-18T18:16:34.589Z,101163.97
2023-04-18T18:19:01.719Z,101164.81
2023-04-18T18:21:29.655Z,101170.06
2023-04-18T18:23:56.825Z,101173.50
2023-04-18T18:26:24.206Z,101174.34
2023-04-18T18:28:58.956Z,101175.22
2023-04-18T18:31:39.509Z,101181.31
2023-04-18T18:34:06.860Z,101175.13
2023-04-18T18:36:34.132Z,101178.63
2023-04-18T18:39:01.155Z,101182.09
2023-04-18T18:41:28.277Z,101182.94
2023-04-18T18:43:56.731Z,101188.16
2023-04-18T18:46:23.677Z,101190.72
2023-04-18T18:48:52.571Z,101187.13
2023-04-18T18:51:21.403Z,101193.22
2023-04-18T18:53:48.881Z,101195.84
2023-04-18T18:56:19.524Z,101196.66
2023-04-18T18:58:49.550Z,101199.31
2023-04-18T19:01:16.569Z,101196.63
2023-04-18T19:03:44.018Z,101197.38
2023-04-18T19:06:11.254Z,101201.69
2023-04-18T19:08:40.535Z,101201.69
2023-04-18T19:11:08.646Z,101205.19
2023-04-18T19:13:35.788Z,101202.47
2023-04-18T19:16:03.879Z,101207.50
2023-04-18T19:18:31.897Z,101210.94
2023-04-18T19:20:59.053Z,101220.56
2023-04-18T19:23:29.184Z,101221.31
2023-04-18T19:25:58.301Z,101222.06
2023-04-18T19:28:26.285Z,101228.22
2023-04-18T19:30:53.594Z,101226.41
2023-04-18T19:33:21.504Z,101229.03
2023-04-18T19:35:48.486Z,101229.88
2023-04-18T19:38:15.705Z,101238.72
2023-04-18T19:40:42.813Z,101237.84
2023-04-18T19:43:10.804Z,101237.78
2023-04-18T19:45:38.764Z,101235.88
2023-04-18T19:48:06.014Z,101241.25
2023-04-18T19:50:34.597Z,101245.41
2023-04-18T19:53:02.002Z,101236.47
2023-04-18T19:55:28.962Z,101248.44
2023-04-18T19:57:58.769Z,101245.59
2023-04-18T20:00:26.412Z,101250.84
2023-04-18T20:02:54.758Z,101250.81
2023-04-18T20:05:22.111Z,101254.28
2023-04-18T20:07:49.391Z,101255.09
2023-04-18T20:10:16.493Z,101259.41
2023-04-18T20:12:43.939Z,101260.22
2023-04-18T20:15:11.099Z,101258.31
2023-04-18T20:17:42.702Z,101272.22
2023-04-18T20:20:11.473Z,101274.84
2023-04-18T20:22:40.554Z,101273.06
2023-04-18T20:25:10.767Z,101272.19
2023-04-18T20:27:38.446Z,101272.09
2023-04-18T20:30:06.017Z,101278.19
2023-04-18T20:32:35.735Z,101277.97
2023-04-18T20:35:03.244Z,101279.66
2023-04-18T20:37:31.244Z,101278.69
2023-04-18T20:39:59.053Z,101275.97
2023-04-18T20:42:26.786Z,101283.88
2023-04-18T20:44:55.029Z,101292.34
2023-04-18T20:47:25.261Z,101293.09
2023-04-18T20:50:03.781Z,101287.72
2023-04-18T20:52:31.405Z,101286.66
2023-04-18T20:55:03.591Z,101290.81
2023-04-18T20:57:43.993Z,101280.00
2023-04-18T21:00:14.502Z,101286.88
2023-04-18T21:02:42.774Z,101294.47
2023-04-18T21:05:16.999Z,101293.53
2023-04-18T21:07:45.856Z,101289.88
2023-04-18T21:10:18.953Z,101291.38
2023-04-18T21:12:53.507Z,101285.91
2023-04-18T21:15:25.171Z,101289.41
2023-04-18T21:17:53.012Z,101290.16
2023-04-18T21:20:20.596Z,101295.28
2023-04-18T21:22:58.090Z,101284.00
2023-04-18T21:25:29.433Z,101287.50
2023-04-18T21:27:57.153Z,101287.09
2023-04-18T21:30:25.340Z,101288.91
2023-04-18T21:32:52.879Z,101292.34
2023-04-18T21:35:21.916Z,101293.03
2023-04-18T21:37:50.869Z,101293.13
2023-04-18T21:40:18.787Z,101282.63
2023-04-18T21:42:47.759Z,101286.84
2023-04-18T21:45:16.735Z,101284.22
2023-04-18T21:47:45.665Z,101285.91
2023-04-18T21:50:14.323Z,101277.13
2023-04-18T21:52:48.723Z,101280.81
2023-04-18T21:55:16.940Z,101287.72
2023-04-18T21:57:44.452Z,101282.53
2023-04-18T22:00:13.087Z,101284.28
2023-04-18T22:02:43.039Z,101282.50
2023-04-18T22:05:13.188Z,101288.69
2023-04-18T22:07:54.406Z,101284.22
2023-04-18T22:10:25.312Z,101281.66
2023-04-18T22:12:55.280Z,101281.69
2023-04-18T22:15:22.914Z,101287.69
2023-04-18T22:17:51.132Z,101281.41
2023-04-18T22:20:19.863Z,101283.66
2023-04-18T22:22:47.065Z,101282.28
2023-04-18T22:25:14.698Z,101294.22
2023-04-18T22:27:43.385Z,101279.41
2023-04-18T22:30:10.652Z,101278.56
2023-04-18T22:32:38.106Z,101273.19
2023-04-18T22:35:05.600Z,101281.63
2023-04-18T22:37:32.852Z,101283.38
2023-04-18T22:39:59.892Z,101273.47
2023-04-18T22:42:27.576Z,101278.34
2023-04-18T22:44:55.763Z,101275.56
2023-04-18T22:47:22.982Z,101276.16
2023-04-18T22:49:50.075Z,101270.94
2023-04-18T22:52:17.255Z,101268.19
2023-04-18T22:54:44.653Z,101273.41
2023-04-18T22:57:11.932Z,101270.47
2023-04-18T22:59:39.304Z,101275.41
2023-04-18T23:02:06.538Z,101269.31
2023-04-18T23:04:34.585Z,101278.66
2023-04-18T23:07:02.467Z,101279.28
2023-04-18T23:09:31.508Z,101276.69
2023-04-18T23:12:02.841Z,101279.00
2023-04-18T23:14:30.188Z,101275.56
2023-04-18T23:16:58.192Z,101273.75
2023-04-18T23:19:29.889Z,101269.31
2023-04-18T23:21:57.511Z,101271.81
2023-04-18T23:24:24.552Z,101269.22
2023-04-18T23:26:51.853Z,101270.88
2023-04-18T23:29:19.082Z,101269.78
2023-04-18T23:31:46.197Z,101274.94
2023-04-18T23:34:13.743Z,101276.47
2023-04-18T23:36:41.232Z,101274.66
2023-04-18T23:39:08.879Z,101260.44
2023-04-18T23:41:36.070Z,101273.63
2023-04-18T23:44:03.188Z,101273.72
2023-04-18T23:46:30.430Z,101270.19
2023-04-18T23:48:58.453Z,101272.75
2023-04-18T23:51:26.483Z,101266.31
2023-04-18T23:53:53.464Z,101276.69
2023-04-18T23:56:20.723Z,101273.78
2023-04-18T23:58:47.902Z,101249.66
